sensor_id;sensor_type;location;lat;lon;timestamp;temperature;humidity
17348;DHT22;8791;50.876;4.342;2023-04-15T00:01:24;12.00;99.90
17348;DHT22;8791;50.876;4.342;2023-04-15T00:03:53;12.10;99.90
17348;DHT22;8791;50.876;4.342;2023-04-15T00:06:21;12.20;99.90
17348;DHT22;8791;50.876;4.342;2023-04-15T00:08:48;12.10;99.90
17348;DHT22;8791;50.876;4.342;2023-04-15T00:11:16;12.10;99.90
17348;DHT22;8791;50.876;4.342;2023-04-15T00:13:43;12.00;99.90
17348;DHT22;8791;50.876;4.342;2023-04-15T00:16:10;11.90;99.90
17348;DHT22;8791;50.876;4.342;2023-04-15T00:18:37;11.80;99.90
17348;DHT22;8791;50.876;4.342;2023-04-15T00:21:05;11.80;99.90
17348;DHT22;8791;50.876;4.342;2023-04-15T00:23:32;11.80;99.90
17348;DHT22;8791;50.876;4.342;2023-04-15T00:26:00;11.80;99.90
17348;DHT22;8791;50.876;4.342;2023-04-15T00:28:27;11.80;99.90
17348;DHT22;8791;50.876;4.342;2023-04-15T00:30:55;11.70;99.90
17348;DHT22;8791;50.876;4.342;2023-04-15T00:33:22;11.50;99.90
17348;DHT22;8791;50.876;4.342;2023-04-15T00:35:49;11.60;99.90
17348;DHT22;8791;50.876;4.342;2023-04-15T00:38:17;11.60;99.90
17348;DHT22;8791;50.876;4.342;2023-04-15T00:40:44;11.70;99.90
17348;DHT22;8791;50.876;4.342;2023-04-15T00:43:11;11.80;99.90
17348;DHT22;8791;50.876;4.342;2023-04-15T00:45:38;11.70;99.90
17348;DHT22;8791;50.876;4.342;2023-04-15T00:48:05;11.60;99.90
17348;DHT22;8791;50.876;4.342;2023-04-15T00:50:33;11.60;99.90
17348;DHT22;8791;50.876;4.342;2023-04-15T00:53:00;11.60;99.90
17348;DHT22;8791;50.876;4.342;2023-04-15T00:55:28;11.80;99.90
17348;DHT22;8791;50.876;4.342;2023-04-15T00:57:55;11.70;99.90
17348;DHT22;8791;50.876;4.342;2023-04-15T01:00:22;11.70;99.90
17348;DHT22;8791;50.876;4.342;2023-04-15T01:02:50;11.50;99.90
17348;DHT22;8791;50.876;4.342;2023-04-15T01:05:17;11.30;99.90
17348;DHT22;8791;50.876;4.342;2023-04-15T01:07:45;11.30;99.90
17348;DHT22;8791;50.876;4.342;2023-04-15T01:10:12;11.40;99.90
17348;DHT22;8791;50.876;4.342;2023-04-15T01:12:40;11.60;99.90
17348;DHT22;8791;50.876;4.342;2023-04-15T01:15:08;11.40;99.90
17348;DHT22;8791;50.876;4.342;2023-04-15T01:17:36;11.30;99.90
17348;DHT22;8791;50.876;4.342;2023-04-15T01:20:03;11.20;99.90
17348;DHT22;8791;50.876;4.342;2023-04-15T01:22:32;11.20;99.90
17348;DHT22;8791;50.876;4.342;2023-04-15T01:25:05;11.10;99.90
17348;DHT22;8791;50.876;4.342;2023-04-15T01:27:35;11.10;99.90
17348;DHT22;8791;50.876;4.342;2023-04-15T01:30:06;11.10;99.90
17348;DHT22;8791;50.876;4.342;2023-04-15T01:32:33;11.00;99.90
17348;DHT22;8791;50.876;4.342;2023-04-15T01:35:00;10.90;99.90
17348;DHT22;8791;50.876;4.342;2023-04-15T01:37:28;10.90;99.90
17348;DHT22;8791;50.876;4.342;2023-04-15T01:39:55;11.20;99.90
17348;DHT22;8791;50.876;4.342;2023-04-15T01:42:22;11.20;99.90
17348;DHT22;8791;50.876;4.342;2023-04-15T01:44:51;11.00;99.90
17348;DHT22;8791;50.876;4.342;2023-04-15T01:47:18;11.00;99.90
17348;DHT22;8791;50.876;4.342;2023-04-15T01:49:45;11.00;99.90
17348;DHT22;8791;50.876;4.342;2023-04-15T01:52:11;11.00;99.90
17348;DHT22;8791;50.876;4.342;2023-04-15T01:54:38;10.90;99.90
17348;DHT22;8791;50.876;4.342;2023-04-15T01:57:05;11.00;99.90
17348;DHT22;8791;50.876;4.342;2023-04-15T01:59:32;11.20;99.90
17348;DHT22;8791;50.876;4.342;2023-04-15T02:02:00;11.20;99.90
17348;DHT22;8791;50.876;4.342;2023-04-15T02:04:27;11.10;99.90
17348;DHT22;8791;50.876;4.342;2023-04-15T02:06:54;11.30;99.90
17348;DHT22;8791;50.876;4.342;2023-04-15T02:09:21;11.30;99.90
17348;DHT22;8791;50.876;4.342;2023-04-15T02:11:48;11.30;99.90
17348;DHT22;8791;50.876;4.342;2023-04-15T02:14:14;11.40;99.90
17348;DHT22;8791;50.876;4.342;2023-04-15T02:16:41;11.50;99.90
17348;DHT22;8791;50.876;4.342;2023-04-15T02:19:09;11.50;99.90
17348;DHT22;8791;50.876;4.342;2023-04-15T02:21:37;11.30;99.90
17348;DHT22;8791;50.876;4.342;2023-04-15T02:24:04;11.20;99.90
17348;DHT22;8791;50.876;4.342;2023-04-15T02:26:31;11.10;99.90
17348;DHT22;8791;50.876;4.342;2023-04-15T02:28:58;11.10;99.90
17348;DHT22;8791;50.876;4.342;2023-04-15T02:31:25;11.20;99.90
17348;DHT22;8791;50.876;4.342;2023-04-15T02:33:52;11.30;99.90
17348;DHT22;8791;50.876;4.342;2023-04-15T02:36:20;11.10;99.90
17348;DHT22;8791;50.876;4.342;2023-04-15T02:38:48;11.30;99.90
17348;DHT22;8791;50.876;4.342;2023-04-15T02:41:15;11.40;99.90
17348;DHT22;8791;50.876;4.342;2023-04-15T02:43:41;11.40;99.90
17348;DHT22;8791;50.876;4.342;2023-04-15T02:46:08;11.20;99.90
17348;DHT22;8791;50.876;4.342;2023-04-15T02:48:38;11.00;99.90
17348;DHT22;8791;50.876;4.342;2023-04-15T02:51:15;10.70;99.90
17348;DHT22;8791;50.876;4.342;2023-04-15T02:53:45;10.90;99.90
17348;DHT22;8791;50.876;4.342;2023-04-15T02:56:13;11.00;99.90
17348;DHT22;8791;50.876;4.342;2023-04-15T02:58:42;11.10;99.90
17348;DHT22;8791;50.876;4.342;2023-04-15T03:01:10;11.10;99.90
17348;DHT22;8791;50.876;4.342;2023-04-15T03:03:37;11.00;99.90
17348;DHT22;8791;50.876;4.342;2023-04-15T03:06:03;11.10;99.90
17348;DHT22;8791;50.876;4.342;2023-04-15T03:08:31;11.10;99.90
17348;DHT22;8791;50.876;4.342;2023-04-15T03:10:59;10.90;99.90
17348;DHT22;8791;50.876;4.342;2023-04-15T03:13:27;10.80;99.90
17348;DHT22;8791;50.876;4.342;2023-04-15T03:15:54;10.60;99.90
17348;DHT22;8791;50.876;4.342;2023-04-15T03:18:20;10.50;99.90
17348;DHT22;8791;50.876;4.342;2023-04-15T03:20:47;10.50;99.90
17348;DHT22;8791;50.876;4.342;2023-04-15T03:23:14;10.70;99.90
17348;DHT22;8791;50.876;4.342;2023-04-15T03:25:41;10.90;99.90
17348;DHT22;8791;50.876;4.342;2023-04-15T03:28:09;10.80;99.90
17348;DHT22;8791;50.876;4.342;2023-04-15T03:30:36;10.40;99.90
17348;DHT22;8791;50.876;4.342;2023-04-15T03:33:03;10.30;99.90
17348;DHT22;8791;50.876;4.342;2023-04-15T03:35:29;10.30;99.90
17348;DHT22;8791;50.876;4.342;2023-04-15T03:37:56;10.20;99.90
17348;DHT22;8791;50.876;4.342;2023-04-15T03:40:23;10.10;99.90
17348;DHT22;8791;50.876;4.342;2023-04-15T03:42:50;10.10;99.90
17348;DHT22;8791;50.876;4.342;2023-04-15T03:45:18;10.10;99.90
17348;DHT22;8791;50.876;4.342;2023-04-15T03:47:45;10.00;99.90
17348;DHT22;8791;50.876;4.342;2023-04-15T03:50:11;9.90;99.90
17348;DHT22;8791;50.876;4.342;2023-04-15T03:52:38;10.00;99.90
17348;DHT22;8791;50.876;4.342;2023-04-15T03:55:05;9.90;99.90
17348;DHT22;8791;50.876;4.342;2023-04-15T03:57:33;9.80;99.90
17348;DHT22;8791;50.876;4.342;2023-04-15T04:00:04;9.80;99.90
17348;DHT22;8791;50.876;4.342;2023-04-15T04:02:32;9.60;99.90
17348;DHT22;8791;50.876;4.342;2023-04-15T04:04:59;9.60;99.90
17348;DHT22;8791;50.876;4.342;2023-04-15T04:07:26;9.70;99.90
17348;DHT22;8791;50.876;4.342;2023-04-15T04:09:53;9.70;99.90
17348;DHT22;8791;50.876;4.342;2023-04-15T04:12:20;9.70;99.90
17348;DHT22;8791;50.876;4.342;2023-04-15T04:14:46;9.70;99.90
17348;DHT22;8791;50.876;4.342;2023-04-15T04:17:13;9.50;99.90
17348;DHT22;8791;50.876;4.342;2023-04-15T04:19:41;9.60;99.90
17348;DHT22;8791;50.876;4.342;2023-04-15T04:22:08;9.70;99.90
17348;DHT22;8791;50.876;4.342;2023-04-15T04:24:35;9.50;99.90
17348;DHT22;8791;50.876;4.342;2023-04-15T04:27:02;9.40;99.90
17348;DHT22;8791;50.876;4.342;2023-04-15T04:29:28;9.40;99.90
17348;DHT22;8791;50.876;4.342;2023-04-15T04:31:55;9.30;99.90
17348;DHT22;8791;50.876;4.342;2023-04-15T04:34:22;9.30;99.90
17348;DHT22;8791;50.876;4.342;2023-04-15T04:36:50;9.10;99.90
17348;DHT22;8791;50.876;4.342;2023-04-15T04:39:17;9.10;99.90
17348;DHT22;8791;50.876;4.342;2023-04-15T04:41:44;9.20;99.90
17348;DHT22;8791;50.876;4.342;2023-04-15T04:44:11;9.40;99.90
17348;DHT22;8791;50.876;4.342;2023-04-15T04:46:38;9.50;99.90
17348;DHT22;8791;50.876;4.342;2023-04-15T04:49:04;9.70;99.90
17348;DHT22;8791;50.876;4.342;2023-04-15T04:51:31;9.60;99.90
17348;DHT22;8791;50.876;4.342;2023-04-15T04:53:59;9.70;99.90
17348;DHT22;8791;50.876;4.342;2023-04-15T04:56:26;9.90;99.90
17348;DHT22;8791;50.876;4.342;2023-04-15T04:58:53;9.80;99.90
17348;DHT22;8791;50.876;4.342;2023-04-15T05:01:20;9.90;99.90
17348;DHT22;8791;50.876;4.342;2023-04-15T05:03:46;9.90;99.90
17348;DHT22;8791;50.876;4.342;2023-04-15T05:06:13;9.80;99.90
17348;DHT22;8791;50.876;4.342;2023-04-15T05:08:40;9.80;99.90
17348;DHT22;8791;50.876;4.342;2023-04-15T05:11:08;9.80;99.90
17348;DHT22;8791;50.876;4.342;2023-04-15T05:13:35;9.70;99.90
17348;DHT22;8791;50.876;4.342;2023-04-15T05:16:03;9.70;99.90
17348;DHT22;8791;50.876;4.342;2023-04-15T05:18:30;9.80;99.90
17348;DHT22;8791;50.876;4.342;2023-04-15T05:20:57;9.80;99.90
17348;DHT22;8791;50.876;4.342;2023-04-15T05:23:24;9.70;99.90
17348;DHT22;8791;50.876;4.342;2023-04-15T05:25:51;9.50;99.90
17348;DHT22;8791;50.876;4.342;2023-04-15T05:28:19;9.70;99.90
17348;DHT22;8791;50.876;4.342;2023-04-15T05:30:46;9.70;99.90
17348;DHT22;8791;50.876;4.342;2023-04-15T05:33:13;9.80;99.90
17348;DHT22;8791;50.876;4.342;2023-04-15T05:35:40;9.80;99.90
17348;DHT22;8791;50.876;4.342;2023-04-15T05:38:07;9.80;99.90
17348;DHT22;8791;50.876;4.342;2023-04-15T05:40:33;9.50;99.90
17348;DHT22;8791;50.876;4.342;2023-04-15T05:43:00;9.30;99.90
17348;DHT22;8791;50.876;4.342;2023-04-15T05:45:28;9.50;99.90
17348;DHT22;8791;50.876;4.342;2023-04-15T05:47:55;9.80;99.90
17348;DHT22;8791;50.876;4.342;2023-04-15T05:50:22;9.90;99.90
17348;DHT22;8791;50.876;4.342;2023-04-15T05:52:49;9.90;99.90
17348;DHT22;8791;50.876;4.342;2023-04-15T05:55:16;9.60;99.90
17348;DHT22;8791;50.876;4.342;2023-04-15T05:57:42;9.40;99.90
17348;DHT22;8791;50.876;4.342;2023-04-15T06:00:10;9.40;99.90
17348;DHT22;8791;50.876;4.342;2023-04-15T06:02:39;9.40;99.90
17348;DHT22;8791;50.876;4.342;2023-04-15T06:05:06;9.40;99.90
17348;DHT22;8791;50.876;4.342;2023-04-15T06:07:34;9.50;99.90
17348;DHT22;8791;50.876;4.342;2023-04-15T06:10:02;9.40;99.90
17348;DHT22;8791;50.876;4.342;2023-04-15T06:12:29;9.50;99.90
17348;DHT22;8791;50.876;4.342;2023-04-15T06:14:56;9.60;99.90
17348;DHT22;8791;50.876;4.342;2023-04-15T06:17:23;9.70;99.90
17348;DHT22;8791;50.876;4.342;2023-04-15T06:19:52;9.70;99.90
17348;DHT22;8791;50.876;4.342;2023-04-15T06:22:20;9.90;99.90
17348;DHT22;8791;50.876;4.342;2023-04-15T06:24:47;10.00;99.90
17348;DHT22;8791;50.876;4.342;2023-04-15T06:27:15;10.10;99.90
17348;DHT22;8791;50.876;4.342;2023-04-15T06:29:42;10.40;99.90
17348;DHT22;8791;50.876;4.342;2023-04-15T06:32:09;10.50;99.90
17348;DHT22;8791;50.876;4.342;2023-04-15T06:34:36;10.50;99.90
17348;DHT22;8791;50.876;4.342;2023-04-15T06:37:05;10.70;99.90
17348;DHT22;8791;50.876;4.342;2023-04-15T06:39:32;10.50;99.90
17348;DHT22;8791;50.876;4.342;2023-04-15T06:41:58;10.40;99.90
17348;DHT22;8791;50.876;4.342;2023-04-15T06:44:25;10.30;99.90
17348;DHT22;8791;50.876;4.342;2023-04-15T06:46:52;10.20;99.90
17348;DHT22;8791;50.876;4.342;2023-04-15T06:49:19;10.40;99.90
17348;DHT22;8791;50.876;4.342;2023-04-15T06:51:46;10.50;99.90
17348;DHT22;8791;50.876;4.342;2023-04-15T06:54:14;10.80;99.90
17348;DHT22;8791;50.876;4.342;2023-04-15T06:56:41;10.80;99.90
17348;DHT22;8791;50.876;4.342;2023-04-15T06:59:08;10.70;99.90
17348;DHT22;8791;50.876;4.342;2023-04-15T07:01:35;10.60;99.90
17348;DHT22;8791;50.876;4.342;2023-04-15T07:04:02;10.60;99.90
17348;DHT22;8791;50.876;4.342;2023-04-15T07:06:29;10.70;99.90
17348;DHT22;8791;50.876;4.342;2023-04-15T07:08:57;10.90;99.90
17348;DHT22;8791;50.876;4.342;2023-04-15T07:11:26;11.20;99.90
17348;DHT22;8791;50.876;4.342;2023-04-15T07:13:53;11.20;99.90
17348;DHT22;8791;50.876;4.342;2023-04-15T07:16:20;11.40;99.90
17348;DHT22;8791;50.876;4.342;2023-04-15T07:18:47;11.30;99.90
17348;DHT22;8791;50.876;4.342;2023-04-15T07:21:14;11.50;99.90
17348;DHT22;8791;50.876;4.342;2023-04-15T07:23:41;11.70;99.90
17348;DHT22;8791;50.876;4.342;2023-04-15T07:26:08;11.80;99.90
17348;DHT22;8791;50.876;4.342;2023-04-15T07:28:37;11.60;99.90
17348;DHT22;8791;50.876;4.342;2023-04-15T07:31:04;11.50;99.90
17348;DHT22;8791;50.876;4.342;2023-04-15T07:33:31;11.50;99.90
17348;DHT22;8791;50.876;4.342;2023-04-15T07:35:58;11.30;99.90
17348;DHT22;8791;50.876;4.342;2023-04-15T07:38:25;11.10;99.90
17348;DHT22;8791;50.876;4.342;2023-04-15T07:40:51;11.10;99.90
17348;DHT22;8791;50.876;4.342;2023-04-15T07:43:19;10.90;99.90
17348;DHT22;8791;50.876;4.342;2023-04-15T07:45:47;11.20;99.90
17348;DHT22;8791;50.876;4.342;2023-04-15T07:48:14;11.00;99.90
17348;DHT22;8791;50.876;4.342;2023-04-15T07:50:41;10.90;99.90
17348;DHT22;8791;50.876;4.342;2023-04-15T07:53:08;10.90;99.90
17348;DHT22;8791;50.876;4.342;2023-04-15T07:55:35;10.80;99.90
17348;DHT22;8791;50.876;4.342;2023-04-15T07:58:02;10.90;99.90
17348;DHT22;8791;50.876;4.342;2023-04-15T08:00:28;10.80;99.90
17348;DHT22;8791;50.876;4.342;2023-04-15T08:02:57;10.90;99.90
17348;DHT22;8791;50.876;4.342;2023-04-15T08:05:24;10.80;99.90
17348;DHT22;8791;50.876;4.342;2023-04-15T08:07:51;10.80;99.90
17348;DHT22;8791;50.876;4.342;2023-04-15T08:10:18;10.90;99.90
17348;DHT22;8791;50.876;4.342;2023-04-15T08:12:45;11.20;99.90
17348;DHT22;8791;50.876;4.342;2023-04-15T08:15:13;11.20;99.90
17348;DHT22;8791;50.876;4.342;2023-04-15T08:17:40;11.20;99.90
17348;DHT22;8791;50.876;4.342;2023-04-15T08:20:09;11.30;99.90
17348;DHT22;8791;50.876;4.342;2023-04-15T08:22:36;11.30;99.90
17348;DHT22;8791;50.876;4.342;2023-04-15T08:25:04;11.40;99.90
17348;DHT22;8791;50.876;4.342;2023-04-15T08:27:31;11.50;99.90
17348;DHT22;8791;50.876;4.342;2023-04-15T08:29:58;11.70;99.90
17348;DHT22;8791;50.876;4.342;2023-04-15T08:32:24;11.70;99.90
17348;DHT22;8791;50.876;4.342;2023-04-15T08:34:51;11.90;99.90
17348;DHT22;8791;50.876;4.342;2023-04-15T08:37:20;12.00;99.90
17348;DHT22;8791;50.876;4.342;2023-04-15T08:39:47;11.90;99.90
17348;DHT22;8791;50.876;4.342;2023-04-15T08:42:16;11.90;99.90
17348;DHT22;8791;50.876;4.342;2023-04-15T08:44:45;12.10;99.90
17348;DHT22;8791;50.876;4.342;2023-04-15T08:47:13;12.20;99.90
17348;DHT22;8791;50.876;4.342;2023-04-15T08:49:43;12.20;99.90
17348;DHT22;8791;50.876;4.342;2023-04-15T08:52:10;12.20;99.90
17348;DHT22;8791;50.876;4.342;2023-04-15T08:54:39;12.10;99.90
17348;DHT22;8791;50.876;4.342;2023-04-15T08:57:06;12.30;99.90
17348;DHT22;8791;50.876;4.342;2023-04-15T08:59:33;12.40;99.90
17348;DHT22;8791;50.876;4.342;2023-04-15T09:02:01;12.60;99.90
17348;DHT22;8791;50.876;4.342;2023-04-15T09:04:29;12.90;99.90
17348;DHT22;8791;50.876;4.342;2023-04-15T09:06:55;13.00;99.90
17348;DHT22;8791;50.876;4.342;2023-04-15T09:09:22;13.20;99.90
17348;DHT22;8791;50.876;4.342;2023-04-15T09:11:51;13.30;99.90
17348;DHT22;8791;50.876;4.342;2023-04-15T09:14:17;13.30;99.90
17348;DHT22;8791;50.876;4.342;2023-04-15T09:16:58;13.50;99.90
17348;DHT22;8791;50.876;4.342;2023-04-15T09:19:25;13.70;99.90
17348;DHT22;8791;50.876;4.342;2023-04-15T09:21:53;13.80;99.90
17348;DHT22;8791;50.876;4.342;2023-04-15T09:24:21;13.90;99.90
17348;DHT22;8791;50.876;4.342;2023-04-15T09:26:53;14.00;99.90
17348;DHT22;8791;50.876;4.342;2023-04-15T09:29:24;14.40;99.90
17348;DHT22;8791;50.876;4.342;2023-04-15T09:31:51;14.30;99.90
17348;DHT22;8791;50.876;4.342;2023-04-15T09:34:18;14.30;99.90
17348;DHT22;8791;50.876;4.342;2023-04-15T09:36:53;14.40;99.90
17348;DHT22;8791;50.876;4.342;2023-04-15T09:39:20;14.30;99.90
17348;DHT22;8791;50.876;4.342;2023-04-15T09:41:52;14.40;99.90
17348;DHT22;8791;50.876;4.342;2023-04-15T09:44:29;14.70;99.90
17348;DHT22;8791;50.876;4.342;2023-04-15T09:46:56;14.70;99.90
17348;DHT22;8791;50.876;4.342;2023-04-15T09:49:22;14.80;99.90
17348;DHT22;8791;50.876;4.342;2023-04-15T09:51:49;14.80;99.90
17348;DHT22;8791;50.876;4.342;2023-04-15T09:54:18;14.80;99.90
17348;DHT22;8791;50.876;4.342;2023-04-15T09:56:46;14.80;99.90
17348;DHT22;8791;50.876;4.342;2023-04-15T09:59:14;14.90;99.90
17348;DHT22;8791;50.876;4.342;2023-04-15T10:01:41;14.80;99.90
17348;DHT22;8791;50.876;4.342;2023-04-15T10:04:09;14.90;99.90
17348;DHT22;8791;50.876;4.342;2023-04-15T10:06:36;15.00;99.90
17348;DHT22;8791;50.876;4.342;2023-04-15T10:09:03;15.10;99.90
17348;DHT22;8791;50.876;4.342;2023-04-15T10:11:31;15.10;99.90
17348;DHT22;8791;50.876;4.342;2023-04-15T10:13:59;14.90;99.90
17348;DHT22;8791;50.876;4.342;2023-04-15T10:16:28;14.80;99.90
17348;DHT22;8791;50.876;4.342;2023-04-15T10:19:01;14.80;99.90
17348;DHT22;8791;50.876;4.342;2023-04-15T10:21:29;14.90;99.90
17348;DHT22;8791;50.876;4.342;2023-04-15T10:23:57;14.90;99.90
17348;DHT22;8791;50.876;4.342;2023-04-15T10:26:26;14.90;99.90
17348;DHT22;8791;50.876;4.342;2023-04-15T10:28:54;15.00;99.90
17348;DHT22;8791;50.876;4.342;2023-04-15T10:31:21;15.00;99.90
17348;DHT22;8791;50.876;4.342;2023-04-15T10:33:51;14.90;99.90
17348;DHT22;8791;50.876;4.342;2023-04-15T10:36:18;15.00;99.90
17348;DHT22;8791;50.876;4.342;2023-04-15T10:38:45;14.90;99.90
17348;DHT22;8791;50.876;4.342;2023-04-15T10:41:14;14.60;99.90
17348;DHT22;8791;50.876;4.342;2023-04-15T10:43:49;14.70;99.90
17348;DHT22;8791;50.876;4.342;2023-04-15T10:46:26;14.90;99.90
17348;DHT22;8791;50.876;4.342;2023-04-15T10:49:06;14.90;99.90
17348;DHT22;8791;50.876;4.342;2023-04-15T10:51:37;14.90;99.90
17348;DHT22;8791;50.876;4.342;2023-04-15T10:54:08;14.90;99.90
17348;DHT22;8791;50.876;4.342;2023-04-15T10:56:35;15.00;99.90
17348;DHT22;8791;50.876;4.342;2023-04-15T10:59:04;15.20;99.90
17348;DHT22;8791;50.876;4.342;2023-04-15T11:01:52;15.30;99.90
17348;DHT22;8791;50.876;4.342;2023-04-15T11:04:52;15.10;99.90
17348;DHT22;8791;50.876;4.342;2023-04-15T11:07:39;15.00;99.90
17348;DHT22;8791;50.876;4.342;2023-04-15T11:13:17;15.10;99.90
17348;DHT22;8791;50.876;4.342;2023-04-15T11:15:46;15.20;99.90
17348;DHT22;8791;50.876;4.342;2023-04-15T11:18:14;15.10;99.90
17348;DHT22;8791;50.876;4.342;2023-04-15T11:20:44;15.20;99.90
17348;DHT22;8791;50.876;4.342;2023-04-15T11:23:12;15.40;99.90
17348;DHT22;8791;50.876;4.342;2023-04-15T11:25:38;15.50;99.90
17348;DHT22;8791;50.876;4.342;2023-04-15T11:28:06;15.60;99.90
17348;DHT22;8791;50.876;4.342;2023-04-15T11:30:34;15.70;99.90
17348;DHT22;8791;50.876;4.342;2023-04-15T11:33:03;15.70;99.90
17348;DHT22;8791;50.876;4.342;2023-04-15T11:35:30;15.70;99.90
17348;DHT22;8791;50.876;4.342;2023-04-15T11:38:02;15.70;99.90
17348;DHT22;8791;50.876;4.342;2023-04-15T11:40:30;15.70;99.90
17348;DHT22;8791;50.876;4.342;2023-04-15T11:43:05;15.70;95.80
17348;DHT22;8791;50.876;4.342;2023-04-15T11:45:32;15.60;95.50
17348;DHT22;8791;50.876;4.342;2023-04-15T11:48:06;15.70;95.70
17348;DHT22;8791;50.876;4.342;2023-04-15T11:50:34;15.80;94.80
17348;DHT22;8791;50.876;4.342;2023-04-15T11:53:03;16.00;94.30
17348;DHT22;8791;50.876;4.342;2023-04-15T11:55:32;16.10;97.40
17348;DHT22;8791;50.876;4.342;2023-04-15T11:58:11;16.20;95.80
17348;DHT22;8791;50.876;4.342;2023-04-15T12:00:40;16.10;85.00
17348;DHT22;8791;50.876;4.342;2023-04-15T12:03:28;15.70;80.20
17348;DHT22;8791;50.876;4.342;2023-04-15T12:06:10;15.60;82.70
17348;DHT22;8791;50.876;4.342;2023-04-15T12:09:00;15.50;83.30
17348;DHT22;8791;50.876;4.342;2023-04-15T12:11:29;15.60;86.40
17348;DHT22;8791;50.876;4.342;2023-04-15T12:13:57;15.80;88.40
17348;DHT22;8791;50.876;4.342;2023-04-15T12:16:27;15.90;90.00
17348;DHT22;8791;50.876;4.342;2023-04-15T12:18:55;15.90;90.60
17348;DHT22;8791;50.876;4.342;2023-04-15T12:21:24;15.90;91.10
17348;DHT22;8791;50.876;4.342;2023-04-15T12:23:54;15.80;91.40
17348;DHT22;8791;50.876;4.342;2023-04-15T12:26:26;15.80;90.70
17348;DHT22;8791;50.876;4.342;2023-04-15T12:28:53;15.70;90.50
17348;DHT22;8791;50.876;4.342;2023-04-15T12:31:20;15.60;90.50
17348;DHT22;8791;50.876;4.342;2023-04-15T12:33:48;15.80;89.10
17348;DHT22;8791;50.876;4.342;2023-04-15T12:36:15;15.70;87.70
17348;DHT22;8791;50.876;4.342;2023-04-15T12:38:42;15.70;90.00
17348;DHT22;8791;50.876;4.342;2023-04-15T12:41:10;15.70;91.20
17348;DHT22;8791;50.876;4.342;2023-04-15T12:43:37;15.80;87.40
17348;DHT22;8791;50.876;4.342;2023-04-15T12:46:04;15.80;87.80
17348;DHT22;8791;50.876;4.342;2023-04-15T12:48:32;15.80;85.10
17348;DHT22;8791;50.876;4.342;2023-04-15T12:51:00;15.70;86.80
17348;DHT22;8791;50.876;4.342;2023-04-15T12:53:27;15.80;85.30
17348;DHT22;8791;50.876;4.342;2023-04-15T12:55:54;15.70;81.60
17348;DHT22;8791;50.876;4.342;2023-04-15T12:58:22;15.60;79.30
17348;DHT22;8791;50.876;4.342;2023-04-15T13:00:49;15.70;79.40
17348;DHT22;8791;50.876;4.342;2023-04-15T13:03:16;15.80;81.70
17348;DHT22;8791;50.876;4.342;2023-04-15T13:05:43;16.00;82.80
17348;DHT22;8791;50.876;4.342;2023-04-15T13:08:10;15.80;83.70
17348;DHT22;8791;50.876;4.342;2023-04-15T13:10:37;15.90;85.40
17348;DHT22;8791;50.876;4.342;2023-04-15T13:13:04;15.90;86.80
17348;DHT22;8791;50.876;4.342;2023-04-15T13:15:33;16.10;88.50
17348;DHT22;8791;50.876;4.342;2023-04-15T13:18:00;16.30;89.90
17348;DHT22;8791;50.876;4.342;2023-04-15T13:20:27;16.20;90.60
17348;DHT22;8791;50.876;4.342;2023-04-15T13:22:54;16.00;92.40
17348;DHT22;8791;50.876;4.342;2023-04-15T13:25:21;15.90;94.20
17348;DHT22;8791;50.876;4.342;2023-04-15T13:27:49;15.90;95.50
17348;DHT22;8791;50.876;4.342;2023-04-15T13:30:15;16.00;96.10
17348;DHT22;8791;50.876;4.342;2023-04-15T13:32:44;15.90;96.80
17348;DHT22;8791;50.876;4.342;2023-04-15T13:35:11;15.90;94.40
17348;DHT22;8791;50.876;4.342;2023-04-15T13:37:48;15.80;93.20
17348;DHT22;8791;50.876;4.342;2023-04-15T13:40:19;15.80;93.10
17348;DHT22;8791;50.876;4.342;2023-04-15T13:42:45;15.70;92.40
17348;DHT22;8791;50.876;4.342;2023-04-15T13:45:16;15.70;93.00
17348;DHT22;8791;50.876;4.342;2023-04-15T13:47:45;15.80;93.60
17348;DHT22;8791;50.876;4.342;2023-04-15T13:50:12;15.80;93.40
17348;DHT22;8791;50.876;4.342;2023-04-15T13:52:38;15.90;91.30
17348;DHT22;8791;50.876;4.342;2023-04-15T13:55:06;15.90;92.60
17348;DHT22;8791;50.876;4.342;2023-04-15T13:57:33;15.80;93.00
17348;DHT22;8791;50.876;4.342;2023-04-15T14:00:00;15.80;93.50
17348;DHT22;8791;50.876;4.342;2023-04-15T14:02:28;15.90;92.60
17348;DHT22;8791;50.876;4.342;2023-04-15T14:04:56;16.00;94.20
17348;DHT22;8791;50.876;4.342;2023-04-15T14:07:23;16.10;93.90
17348;DHT22;8791;50.876;4.342;2023-04-15T14:09:50;16.30;94.70
17348;DHT22;8791;50.876;4.342;2023-04-15T14:12:17;16.20;95.30
17348;DHT22;8791;50.876;4.342;2023-04-15T14:14:45;16.40;95.10
17348;DHT22;8791;50.876;4.342;2023-04-15T14:17:13;16.20;95.80
17348;DHT22;8791;50.876;4.342;2023-04-15T14:19:40;16.20;96.00
17348;DHT22;8791;50.876;4.342;2023-04-15T14:22:08;16.10;96.60
17348;DHT22;8791;50.876;4.342;2023-04-15T14:24:35;15.90;97.80
17348;DHT22;8791;50.876;4.342;2023-04-15T14:27:02;16.00;96.30
17348;DHT22;8791;50.876;4.342;2023-04-15T14:29:28;15.90;94.90
17348;DHT22;8791;50.876;4.342;2023-04-15T14:31:55;15.80;94.50
17348;DHT22;8791;50.876;4.342;2023-04-15T14:34:23;15.70;93.70
17348;DHT22;8791;50.876;4.342;2023-04-15T14:36:51;15.60;95.00
17348;DHT22;8791;50.876;4.342;2023-04-15T14:39:19;15.50;96.10
17348;DHT22;8791;50.876;4.342;2023-04-15T14:41:46;15.70;95.40
17348;DHT22;8791;50.876;4.342;2023-04-15T14:44:13;15.80;93.60
17348;DHT22;8791;50.876;4.342;2023-04-15T14:46:40;15.80;94.00
17348;DHT22;8791;50.876;4.342;2023-04-15T14:49:07;15.60;94.80
17348;DHT22;8791;50.876;4.342;2023-04-15T14:51:34;15.50;95.80
17348;DHT22;8791;50.876;4.342;2023-04-15T14:54:01;15.40;98.10
17348;DHT22;8791;50.876;4.342;2023-04-15T14:56:29;15.40;98.90
17348;DHT22;8791;50.876;4.342;2023-04-15T14:58:56;15.60;99.50
17348;DHT22;8791;50.876;4.342;2023-04-15T15:01:23;15.70;99.90
17348;DHT22;8791;50.876;4.342;2023-04-15T15:03:50;15.70;99.90
17348;DHT22;8791;50.876;4.342;2023-04-15T15:06:17;15.80;99.90
17348;DHT22;8791;50.876;4.342;2023-04-15T15:08:44;15.70;99.90
17348;DHT22;8791;50.876;4.342;2023-04-15T15:11:11;15.90;99.90
17348;DHT22;8791;50.876;4.342;2023-04-15T15:13:39;15.80;99.90
17348;DHT22;8791;50.876;4.342;2023-04-15T15:16:06;15.60;99.90
17348;DHT22;8791;50.876;4.342;2023-04-15T15:18:34;15.70;99.90
17348;DHT22;8791;50.876;4.342;2023-04-15T15:21:01;15.50;99.90
17348;DHT22;8791;50.876;4.342;2023-04-15T15:23:28;15.70;99.90
17348;DHT22;8791;50.876;4.342;2023-04-15T15:25:54;15.90;99.90
17348;DHT22;8791;50.876;4.342;2023-04-15T15:28:22;16.00;99.90
17348;DHT22;8791;50.876;4.342;2023-04-15T15:30:50;16.10;99.90
17348;DHT22;8791;50.876;4.342;2023-04-15T15:33:20;16.10;99.90
17348;DHT22;8791;50.876;4.342;2023-04-15T15:35:47;15.90;99.90
17348;DHT22;8791;50.876;4.342;2023-04-15T15:38:14;15.90;99.90
17348;DHT22;8791;50.876;4.342;2023-04-15T15:40:41;16.20;99.90
17348;DHT22;8791;50.876;4.342;2023-04-15T15:43:08;15.90;99.90
17348;DHT22;8791;50.876;4.342;2023-04-15T15:45:35;15.40;99.90
17348;DHT22;8791;50.876;4.342;2023-04-15T15:48:04;15.30;99.90
17348;DHT22;8791;50.876;4.342;2023-04-15T15:50:31;15.30;99.90
17348;DHT22;8791;50.876;4.342;2023-04-15T15:52:58;15.10;99.90
17348;DHT22;8791;50.876;4.342;2023-04-15T15:55:24;15.20;99.90